Aden, IL

12:25 AM CDT on November 01, 2014 (GMT -0500)
Garrison, il | Change Station
CLOSE
Current Station
Personal Weather Station
Location: Illinois, IL
Elevation: 427 ft
Nearby Weather Stations
Active Advisory: Freeze Warning

Elev 427 ft 38.25 °N, 88.52 °W | Updated 3 minutes ago

Clear
Clear
35.2 °F
Feels Like 28 °F
N
9.9
Wind Variable Wind from NW

Today
High -- | Low -- °F
--% Chance of Precip.
Yesterday
High -- | Low -- °F
Precip. -- in
7:20 AM 5:54 PM
Waxing Gibbous, 63% visible
Pressure 30.28 in
Visibility 10.0 miles
Clouds Scattered Clouds 4700 ft
Windchill 28 °F
Dew Point 24 °F
Humidity 62%
Rainfall 0.00 in
Snow Depth Not available.
UV 0 out of 12
Pollen .90 out of 12
Air Quality Not available.
Flu Activity Not available.
METAR KFWC 010515Z AUTO 33007KT 300V360 10SM SCT047 02/M05 A3028 RMK AO1 T00211051

More Conditions Fewer Conditions

Pressure 30.28 in
Visibility 10.0 miles
Clouds Scattered Clouds 4700 ft
Windchill 28 °F
Dew Point 24 °F
Humidity 62%
Rainfall 0.00 in
Snow Depth Not available.
UV 0 out of 12
Pollen .90 out of 12
Air Quality Not available.
Flu Activity Not available.
METAR KFWC 010515Z AUTO 33007KT 300V360 10SM SCT047 02/M05 A3028 RMK AO1 T00211051

More Conditions Fewer Conditions

10-Day Weather Forecast

Almanac

Astronomy

Nov. 01, 2014 Rise Set
Actual Time
Civil Twilight
Nautical Twilight
Astronomical Twilight
Moon
Length of Visible Light
Length of Day
Tomorrow will be .
, % of the Moon is Illuminated

Today's Extremes

State Highs State Lows

Community

WunderPhotos

Upload Photos

1,766,858 photos uploaded!

WunderBlogs® & News

Nearby

Air Quality

  Air Quality AQ Index Pollutant
Not available.

Snow Depth

Station Depth Elevation

Earthquake Activity

City Distance Mag. Time & Date
Minimum magnitude displayed is 2.5.

Coastal Water Temperatures

Place Temperature

Nearby Weather Stations